sensor_id;sensor_type;location;lat;lon;timestamp;temperature;humidity
25532;DHT22;13429;48.816;9.118;2023-12-22T00:01:07;7.10;87.00
25532;DHT22;13429;48.816;9.118;2023-12-22T00:03:32;7.10;87.30
25532;DHT22;13429;48.816;9.118;2023-12-22T00:05:58;7.10;87.60
25532;DHT22;13429;48.816;9.118;2023-12-22T00:08:23;7.10;88.00
25532;DHT22;13429;48.816;9.118;2023-12-22T00:10:49;7.10;88.30
25532;DHT22;13429;48.816;9.118;2023-12-22T00:13:15;7.10;89.00
25532;DHT22;13429;48.816;9.118;2023-12-22T00:15:41;7.10;89.60
25532;DHT22;13429;48.816;9.118;2023-12-22T00:18:10;7.20;90.00
25532;DHT22;13429;48.816;9.118;2023-12-22T00:20:35;7.30;90.20
25532;DHT22;13429;48.816;9.118;2023-12-22T00:23:01;7.40;90.20
25532;DHT22;13429;48.816;9.118;2023-12-22T00:25:27;7.40;90.70
25532;DHT22;13429;48.816;9.118;2023-12-22T00:27:52;7.40;91.00
25532;DHT22;13429;48.816;9.118;2023-12-22T00:30:18;7.40;91.10
25532;DHT22;13429;48.816;9.118;2023-12-22T00:32:44;7.40;91.10
25532;DHT22;13429;48.816;9.118;2023-12-22T00:35:09;7.40;91.50
25532;DHT22;13429;48.816;9.118;2023-12-22T00:37:35;7.10;88.80
25532;DHT22;13429;48.816;9.118;2023-12-22T00:40:01;6.90;89.90
25532;DHT22;13429;48.816;9.118;2023-12-22T00:42:29;6.80;90.40
25532;DHT22;13429;48.816;9.118;2023-12-22T00:44:55;6.90;90.80
25532;DHT22;13429;48.816;9.118;2023-12-22T00:47:21;6.90;91.20
25532;DHT22;13429;48.816;9.118;2023-12-22T00:49:46;6.90;90.90
25532;DHT22;13429;48.816;9.118;2023-12-22T00:52:12;6.90;90.60
25532;DHT22;13429;48.816;9.118;2023-12-22T00:54:38;6.90;90.80
25532;DHT22;13429;48.816;9.118;2023-12-22T00:57:04;6.90;90.60
25532;DHT22;13429;48.816;9.118;2023-12-22T00:59:29;6.90;90.70
25532;DHT22;13429;48.816;9.118;2023-12-22T01:01:55;7.00;90.60
25532;DHT22;13429;48.816;9.118;2023-12-22T01:04:21;7.00;90.60
25532;DHT22;13429;48.816;9.118;2023-12-22T01:06:46;7.00;90.40
25532;DHT22;13429;48.816;9.118;2023-12-22T01:09:12;7.10;90.30
25532;DHT22;13429;48.816;9.118;2023-12-22T01:11:37;7.10;90.40
25532;DHT22;13429;48.816;9.118;2023-12-22T01:14:03;7.10;90.30
25532;DHT22;13429;48.816;9.118;2023-12-22T01:16:29;7.10;89.00
25532;DHT22;13429;48.816;9.118;2023-12-22T01:18:54;7.20;88.90
25532;DHT22;13429;48.816;9.118;2023-12-22T01:21:20;7.20;89.00
25532;DHT22;13429;48.816;9.118;2023-12-22T01:23:45;7.10;89.30
25532;DHT22;13429;48.816;9.118;2023-12-22T01:26:11;7.10;88.80
25532;DHT22;13429;48.816;9.118;2023-12-22T01:28:37;7.10;88.80
25532;DHT22;13429;48.816;9.118;2023-12-22T01:31:02;7.10;88.60
25532;DHT22;13429;48.816;9.118;2023-12-22T01:33:28;7.10;88.30
25532;DHT22;13429;48.816;9.118;2023-12-22T01:35:55;7.20;87.50
25532;DHT22;13429;48.816;9.118;2023-12-22T01:38:20;7.10;87.30
25532;DHT22;13429;48.816;9.118;2023-12-22T01:40:46;7.20;86.60
25532;DHT22;13429;48.816;9.118;2023-12-22T01:43:12;7.20;86.00
25532;DHT22;13429;48.816;9.118;2023-12-22T01:45:40;7.20;85.40
25532;DHT22;13429;48.816;9.118;2023-12-22T01:48:09;7.20;85.50
25532;DHT22;13429;48.816;9.118;2023-12-22T01:50:35;7.20;84.40
25532;DHT22;13429;48.816;9.118;2023-12-22T01:53:03;7.20;83.70
25532;DHT22;13429;48.816;9.118;2023-12-22T01:55:29;7.20;83.20
25532;DHT22;13429;48.816;9.118;2023-12-22T01:57:55;7.10;83.80
25532;DHT22;13429;48.816;9.118;2023-12-22T02:00:21;7.10;83.10
25532;DHT22;13429;48.816;9.118;2023-12-22T02:02:47;7.10;82.90
25532;DHT22;13429;48.816;9.118;2023-12-22T02:05:13;7.10;82.80
25532;DHT22;13429;48.816;9.118;2023-12-22T02:07:41;7.10;82.90
25532;DHT22;13429;48.816;9.118;2023-12-22T02:10:10;7.10;83.40
25532;DHT22;13429;48.816;9.118;2023-12-22T02:12:37;7.00;83.00
25532;DHT22;13429;48.816;9.118;2023-12-22T02:15:03;7.00;82.60
25532;DHT22;13429;48.816;9.118;2023-12-22T02:17:48;7.10;82.60
25532;DHT22;13429;48.816;9.118;2023-12-22T02:20:15;7.10;82.40
25532;DHT22;13429;48.816;9.118;2023-12-22T02:22:41;7.00;82.80
25532;DHT22;13429;48.816;9.118;2023-12-22T02:25:07;7.10;82.00
25532;DHT22;13429;48.816;9.118;2023-12-22T02:27:49;7.10;82.00
25532;DHT22;13429;48.816;9.118;2023-12-22T02:30:40;7.10;82.30
25532;DHT22;13429;48.816;9.118;2023-12-22T02:33:07;7.00;82.40
25532;DHT22;13429;48.816;9.118;2023-12-22T02:35:36;7.10;82.30
25532;DHT22;13429;48.816;9.118;2023-12-22T02:38:04;7.10;82.10
25532;DHT22;13429;48.816;9.118;2023-12-22T02:40:31;7.10;82.40
25532;DHT22;13429;48.816;9.118;2023-12-22T02:42:57;7.10;82.00
25532;DHT22;13429;48.816;9.118;2023-12-22T02:45:23;7.10;81.90
25532;DHT22;13429;48.816;9.118;2023-12-22T02:47:48;7.10;81.90
25532;DHT22;13429;48.816;9.118;2023-12-22T02:50:16;7.20;81.50
25532;DHT22;13429;48.816;9.118;2023-12-22T02:52:42;7.20;81.60
25532;DHT22;13429;48.816;9.118;2023-12-22T02:55:08;7.20;81.60
25532;DHT22;13429;48.816;9.118;2023-12-22T02:57:34;7.20;81.90
25532;DHT22;13429;48.816;9.118;2023-12-22T03:00:00;7.10;81.80
25532;DHT22;13429;48.816;9.118;2023-12-22T03:02:25;7.20;81.60
25532;DHT22;13429;48.816;9.118;2023-12-22T03:04:51;7.20;81.30
25532;DHT22;13429;48.816;9.118;2023-12-22T03:07:17;7.30;81.10
25532;DHT22;13429;48.816;9.118;2023-12-22T03:09:43;7.30;80.60
25532;DHT22;13429;48.816;9.118;2023-12-22T03:12:09;7.30;80.60
25532;DHT22;13429;48.816;9.118;2023-12-22T03:14:35;7.30;80.50
25532;DHT22;13429;48.816;9.118;2023-12-22T03:17:02;7.30;81.10
25532;DHT22;13429;48.816;9.118;2023-12-22T03:19:28;7.30;79.60
25532;DHT22;13429;48.816;9.118;2023-12-22T03:21:54;7.30;79.30
25532;DHT22;13429;48.816;9.118;2023-12-22T03:24:20;7.40;78.40
25532;DHT22;13429;48.816;9.118;2023-12-22T03:26:48;7.40;78.10
25532;DHT22;13429;48.816;9.118;2023-12-22T03:29:14;7.50;76.80
25532;DHT22;13429;48.816;9.118;2023-12-22T03:31:40;7.50;76.90
25532;DHT22;13429;48.816;9.118;2023-12-22T03:34:05;7.50;77.40
25532;DHT22;13429;48.816;9.118;2023-12-22T03:36:31;7.50;77.60
25532;DHT22;13429;48.816;9.118;2023-12-22T03:38:57;7.50;77.50
25532;DHT22;13429;48.816;9.118;2023-12-22T03:41:23;7.40;77.90
25532;DHT22;13429;48.816;9.118;2023-12-22T03:43:48;7.50;77.40
25532;DHT22;13429;48.816;9.118;2023-12-22T03:46:14;7.50;77.80
25532;DHT22;13429;48.816;9.118;2023-12-22T03:48:40;7.50;77.60
25532;DHT22;13429;48.816;9.118;2023-12-22T03:51:05;7.50;77.90
25532;DHT22;13429;48.816;9.118;2023-12-22T03:53:31;7.40;77.90
25532;DHT22;13429;48.816;9.118;2023-12-22T03:55:57;7.50;78.20
25532;DHT22;13429;48.816;9.118;2023-12-22T03:58:22;7.40;79.80
25532;DHT22;13429;48.816;9.118;2023-12-22T04:00:48;7.20;81.90
25532;DHT22;13429;48.816;9.118;2023-12-22T04:03:14;7.10;83.90
25532;DHT22;13429;48.816;9.118;2023-12-22T04:05:39;6.80;85.10
25532;DHT22;13429;48.816;9.118;2023-12-22T04:08:06;6.70;86.30
25532;DHT22;13429;48.816;9.118;2023-12-22T04:10:31;6.70;86.40
25532;DHT22;13429;48.816;9.118;2023-12-22T04:12:57;6.70;87.10
25532;DHT22;13429;48.816;9.118;2023-12-22T04:15:23;6.60;87.10
25532;DHT22;13429;48.816;9.118;2023-12-22T04:17:49;6.60;88.00
25532;DHT22;13429;48.816;9.118;2023-12-22T04:20:15;6.50;88.20
25532;DHT22;13429;48.816;9.118;2023-12-22T04:22:41;6.50;88.30
25532;DHT22;13429;48.816;9.118;2023-12-22T04:25:07;6.50;87.90
25532;DHT22;13429;48.816;9.118;2023-12-22T04:27:36;6.50;87.60
25532;DHT22;13429;48.816;9.118;2023-12-22T04:30:02;6.60;87.00
25532;DHT22;13429;48.816;9.118;2023-12-22T04:32:28;6.60;87.00
25532;DHT22;13429;48.816;9.118;2023-12-22T04:34:54;6.60;86.80
25532;DHT22;13429;48.816;9.118;2023-12-22T04:37:19;6.60;86.60
25532;DHT22;13429;48.816;9.118;2023-12-22T04:39:45;6.70;86.00
25532;DHT22;13429;48.816;9.118;2023-12-22T04:42:11;6.80;84.80
25532;DHT22;13429;48.816;9.118;2023-12-22T04:44:37;6.80;84.40
25532;DHT22;13429;48.816;9.118;2023-12-22T04:47:02;6.80;84.10
25532;DHT22;13429;48.816;9.118;2023-12-22T04:49:28;6.80;83.80
25532;DHT22;13429;48.816;9.118;2023-12-22T04:51:54;6.90;83.10
25532;DHT22;13429;48.816;9.118;2023-12-22T04:54:19;6.90;83.40
25532;DHT22;13429;48.816;9.118;2023-12-22T04:56:45;6.90;83.20
25532;DHT22;13429;48.816;9.118;2023-12-22T04:59:10;6.90;83.30
25532;DHT22;13429;48.816;9.118;2023-12-22T05:01:36;6.90;82.80
25532;DHT22;13429;48.816;9.118;2023-12-22T05:04:02;6.90;82.30
25532;DHT22;13429;48.816;9.118;2023-12-22T05:06:28;7.00;82.70
25532;DHT22;13429;48.816;9.118;2023-12-22T05:08:56;6.90;82.70
25532;DHT22;13429;48.816;9.118;2023-12-22T05:11:22;6.90;82.70
25532;DHT22;13429;48.816;9.118;2023-12-22T05:13:48;7.00;82.70
25532;DHT22;13429;48.816;9.118;2023-12-22T05:16:14;6.90;83.20
25532;DHT22;13429;48.816;9.118;2023-12-22T05:18:40;7.00;82.60
25532;DHT22;13429;48.816;9.118;2023-12-22T05:21:06;7.00;82.90
25532;DHT22;13429;48.816;9.118;2023-12-22T05:23:31;6.90;82.70
25532;DHT22;13429;48.816;9.118;2023-12-22T05:25:58;7.00;82.30
25532;DHT22;13429;48.816;9.118;2023-12-22T05:28:23;7.00;82.40
25532;DHT22;13429;48.816;9.118;2023-12-22T05:30:49;7.00;82.10
25532;DHT22;13429;48.816;9.118;2023-12-22T05:33:14;7.10;82.30
25532;DHT22;13429;48.816;9.118;2023-12-22T05:35:40;7.10;82.50
25532;DHT22;13429;48.816;9.118;2023-12-22T05:38:06;6.90;83.40
25532;DHT22;13429;48.816;9.118;2023-12-22T05:40:32;7.00;83.60
25532;DHT22;13429;48.816;9.118;2023-12-22T05:42:57;6.90;84.10
25532;DHT22;13429;48.816;9.118;2023-12-22T05:45:23;6.90;84.00
25532;DHT22;13429;48.816;9.118;2023-12-22T05:47:50;6.90;83.50
25532;DHT22;13429;48.816;9.118;2023-12-22T05:50:16;7.00;82.00
25532;DHT22;13429;48.816;9.118;2023-12-22T05:52:42;7.10;82.00
25532;DHT22;13429;48.816;9.118;2023-12-22T05:55:09;7.20;81.60
25532;DHT22;13429;48.816;9.118;2023-12-22T05:57:35;7.30;80.10
25532;DHT22;13429;48.816;9.118;2023-12-22T06:00:00;7.30;80.30
25532;DHT22;13429;48.816;9.118;2023-12-22T06:02:26;7.40;79.40
25532;DHT22;13429;48.816;9.118;2023-12-22T06:04:51;7.40;79.10
25532;DHT22;13429;48.816;9.118;2023-12-22T06:07:17;7.30;79.50
25532;DHT22;13429;48.816;9.118;2023-12-22T06:09:44;7.40;78.70
25532;DHT22;13429;48.816;9.118;2023-12-22T06:12:10;7.40;78.90
25532;DHT22;13429;48.816;9.118;2023-12-22T06:14:36;7.40;79.20
25532;DHT22;13429;48.816;9.118;2023-12-22T06:17:01;7.40;79.30
25532;DHT22;13429;48.816;9.118;2023-12-22T06:19:27;7.50;78.90
25532;DHT22;13429;48.816;9.118;2023-12-22T06:21:56;7.40;79.00
25532;DHT22;13429;48.816;9.118;2023-12-22T06:24:23;7.50;78.50
25532;DHT22;13429;48.816;9.118;2023-12-22T06:26:48;7.50;78.40
25532;DHT22;13429;48.816;9.118;2023-12-22T06:29:14;7.50;78.70
25532;DHT22;13429;48.816;9.118;2023-12-22T06:31:40;7.50;78.40
25532;DHT22;13429;48.816;9.118;2023-12-22T06:34:05;7.50;79.10
25532;DHT22;13429;48.816;9.118;2023-12-22T06:36:31;7.50;78.70
25532;DHT22;13429;48.816;9.118;2023-12-22T06:38:57;7.50;78.40
25532;DHT22;13429;48.816;9.118;2023-12-22T06:41:27;7.50;78.10
25532;DHT22;13429;48.816;9.118;2023-12-22T06:43:53;7.50;77.90
25532;DHT22;13429;48.816;9.118;2023-12-22T06:46:20;7.60;77.80
25532;DHT22;13429;48.816;9.118;2023-12-22T06:48:46;7.50;77.80
25532;DHT22;13429;48.816;9.118;2023-12-22T06:51:29;7.60;77.50
25532;DHT22;13429;48.816;9.118;2023-12-22T06:54:01;7.50;78.10
25532;DHT22;13429;48.816;9.118;2023-12-22T06:56:28;7.60;77.40
25532;DHT22;13429;48.816;9.118;2023-12-22T06:58:56;7.60;77.50
25532;DHT22;13429;48.816;9.118;2023-12-22T07:01:31;7.60;77.80
25532;DHT22;13429;48.816;9.118;2023-12-22T07:03:57;7.50;78.00
25532;DHT22;13429;48.816;9.118;2023-12-22T07:06:24;7.60;78.30
25532;DHT22;13429;48.816;9.118;2023-12-22T07:11:43;7.50;79.20
25532;DHT22;13429;48.816;9.118;2023-12-22T07:14:09;7.50;79.40
25532;DHT22;13429;48.816;9.118;2023-12-22T07:16:35;7.40;79.50
25532;DHT22;13429;48.816;9.118;2023-12-22T07:19:01;7.50;79.80
25532;DHT22;13429;48.816;9.118;2023-12-22T07:21:27;7.40;79.90
25532;DHT22;13429;48.816;9.118;2023-12-22T07:23:53;7.50;80.10
25532;DHT22;13429;48.816;9.118;2023-12-22T07:26:18;7.40;80.50
25532;DHT22;13429;48.816;9.118;2023-12-22T07:28:44;7.40;80.70
25532;DHT22;13429;48.816;9.118;2023-12-22T07:31:09;7.40;80.70
25532;DHT22;13429;48.816;9.118;2023-12-22T07:33:35;7.40;80.50
25532;DHT22;13429;48.816;9.118;2023-12-22T07:36:01;7.50;80.40
25532;DHT22;13429;48.816;9.118;2023-12-22T07:38:27;7.50;80.50
25532;DHT22;13429;48.816;9.118;2023-12-22T07:40:53;7.40;80.60
25532;DHT22;13429;48.816;9.118;2023-12-22T07:43:19;7.50;80.40
25532;DHT22;13429;48.816;9.118;2023-12-22T07:45:45;7.50;80.20
25532;DHT22;13429;48.816;9.118;2023-12-22T07:48:10;7.60;80.10
25532;DHT22;13429;48.816;9.118;2023-12-22T07:50:36;7.50;80.30
25532;DHT22;13429;48.816;9.118;2023-12-22T07:53:01;7.50;80.40
25532;DHT22;13429;48.816;9.118;2023-12-22T07:55:27;7.50;80.80
25532;DHT22;13429;48.816;9.118;2023-12-22T07:57:53;7.40;81.20
25532;DHT22;13429;48.816;9.118;2023-12-22T08:00:18;7.40;81.80
25532;DHT22;13429;48.816;9.118;2023-12-22T08:02:44;7.30;82.40
25532;DHT22;13429;48.816;9.118;2023-12-22T08:05:10;7.30;83.50
25532;DHT22;13429;48.816;9.118;2023-12-22T08:07:36;7.20;84.10
25532;DHT22;13429;48.816;9.118;2023-12-22T08:10:03;7.10;85.00
25532;DHT22;13429;48.816;9.118;2023-12-22T08:12:28;7.00;86.30
25532;DHT22;13429;48.816;9.118;2023-12-22T08:14:54;6.90;86.60
25532;DHT22;13429;48.816;9.118;2023-12-22T08:17:20;6.90;86.90
25532;DHT22;13429;48.816;9.118;2023-12-22T08:19:46;6.80;87.30
25532;DHT22;13429;48.816;9.118;2023-12-22T08:22:12;6.80;88.00
25532;DHT22;13429;48.816;9.118;2023-12-22T08:24:41;6.70;88.00
25532;DHT22;13429;48.816;9.118;2023-12-22T08:27:07;6.70;88.70
25532;DHT22;13429;48.816;9.118;2023-12-22T08:29:33;6.70;88.90
25532;DHT22;13429;48.816;9.118;2023-12-22T08:31:59;6.70;88.90
25532;DHT22;13429;48.816;9.118;2023-12-22T08:34:26;6.80;88.80
25532;DHT22;13429;48.816;9.118;2023-12-22T08:36:51;6.80;88.50
25532;DHT22;13429;48.816;9.118;2023-12-22T08:39:17;6.80;88.20
25532;DHT22;13429;48.816;9.118;2023-12-22T08:41:43;6.90;87.50
25532;DHT22;13429;48.816;9.118;2023-12-22T08:44:09;7.00;87.20
25532;DHT22;13429;48.816;9.118;2023-12-22T08:46:35;7.00;86.80
25532;DHT22;13429;48.816;9.118;2023-12-22T08:49:01;7.20;86.00
25532;DHT22;13429;48.816;9.118;2023-12-22T08:51:28;7.20;86.00
25532;DHT22;13429;48.816;9.118;2023-12-22T08:53:54;7.20;85.90
25532;DHT22;13429;48.816;9.118;2023-12-22T08:56:24;7.30;85.70
25532;DHT22;13429;48.816;9.118;2023-12-22T08:58:54;7.30;85.70
25532;DHT22;13429;48.816;9.118;2023-12-22T09:01:26;7.30;84.50
25532;DHT22;13429;48.816;9.118;2023-12-22T09:03:52;7.40;83.70
25532;DHT22;13429;48.816;9.118;2023-12-22T09:06:19;7.40;84.10
25532;DHT22;13429;48.816;9.118;2023-12-22T09:08:46;7.40;84.00
25532;DHT22;13429;48.816;9.118;2023-12-22T09:11:12;7.40;83.60
25532;DHT22;13429;48.816;9.118;2023-12-22T09:13:38;7.50;82.60
25532;DHT22;13429;48.816;9.118;2023-12-22T09:16:05;7.60;82.40
25532;DHT22;13429;48.816;9.118;2023-12-22T09:18:31;7.60;80.90
25532;DHT22;13429;48.816;9.118;2023-12-22T09:20:57;7.70;80.70
25532;DHT22;13429;48.816;9.118;2023-12-22T09:23:23;7.70;79.80
25532;DHT22;13429;48.816;9.118;2023-12-22T09:25:49;7.80;79.60
25532;DHT22;13429;48.816;9.118;2023-12-22T09:28:15;7.80;79.30
25532;DHT22;13429;48.816;9.118;2023-12-22T09:30:41;7.80;79.10
25532;DHT22;13429;48.816;9.118;2023-12-22T09:33:08;7.80;78.60
25532;DHT22;13429;48.816;9.118;2023-12-22T09:35:34;7.80;77.90
25532;DHT22;13429;48.816;9.118;2023-12-22T09:38:01;7.90;78.10
25532;DHT22;13429;48.816;9.118;2023-12-22T09:40:26;7.90;77.60
25532;DHT22;13429;48.816;9.118;2023-12-22T09:42:55;7.90;77.90
25532;DHT22;13429;48.816;9.118;2023-12-22T09:45:21;8.00;77.70
25532;DHT22;13429;48.816;9.118;2023-12-22T09:47:51;8.00;77.50
25532;DHT22;13429;48.816;9.118;2023-12-22T09:50:19;8.00;78.10
25532;DHT22;13429;48.816;9.118;2023-12-22T09:52:45;8.10;77.60
25532;DHT22;13429;48.816;9.118;2023-12-22T09:55:13;8.10;77.20
25532;DHT22;13429;48.816;9.118;2023-12-22T09:57:39;8.10;76.20
25532;DHT22;13429;48.816;9.118;2023-12-22T10:00:08;8.10;76.90
25532;DHT22;13429;48.816;9.118;2023-12-22T10:02:36;8.20;76.20
25532;DHT22;13429;48.816;9.118;2023-12-22T10:05:01;8.20;76.40
25532;DHT22;13429;48.816;9.118;2023-12-22T10:07:28;8.20;76.50
25532;DHT22;13429;48.816;9.118;2023-12-22T10:09:55;8.20;76.70
25532;DHT22;13429;48.816;9.118;2023-12-22T10:12:22;8.20;76.50
25532;DHT22;13429;48.816;9.118;2023-12-22T10:14:49;8.20;76.90
25532;DHT22;13429;48.816;9.118;2023-12-22T10:17:15;8.20;76.90
25532;DHT22;13429;48.816;9.118;2023-12-22T10:19:42;8.20;76.00
25532;DHT22;13429;48.816;9.118;2023-12-22T10:22:08;8.20;76.20
25532;DHT22;13429;48.816;9.118;2023-12-22T10:24:40;8.30;75.50
25532;DHT22;13429;48.816;9.118;2023-12-22T10:27:10;8.30;75.70
25532;DHT22;13429;48.816;9.118;2023-12-22T10:29:36;8.30;74.80
25532;DHT22;13429;48.816;9.118;2023-12-22T10:32:03;8.30;75.40
25532;DHT22;13429;48.816;9.118;2023-12-22T10:34:30;8.30;75.50
25532;DHT22;13429;48.816;9.118;2023-12-22T10:36:56;8.40;76.10
25532;DHT22;13429;48.816;9.118;2023-12-22T10:39:22;8.30;76.30
25532;DHT22;13429;48.816;9.118;2023-12-22T10:41:48;8.40;76.90
25532;DHT22;13429;48.816;9.118;2023-12-22T10:44:17;8.40;77.50
25532;DHT22;13429;48.816;9.118;2023-12-22T10:46:43;8.40;78.20
25532;DHT22;13429;48.816;9.118;2023-12-22T10:49:09;8.30;78.50
25532;DHT22;13429;48.816;9.118;2023-12-22T10:51:34;8.30;78.80
25532;DHT22;13429;48.816;9.118;2023-12-22T10:54:00;8.30;79.20
25532;DHT22;13429;48.816;9.118;2023-12-22T10:56:26;8.30;80.00
25532;DHT22;13429;48.816;9.118;2023-12-22T10:58:53;8.30;80.10
25532;DHT22;13429;48.816;9.118;2023-12-22T11:01:21;8.20;80.50
25532;DHT22;13429;48.816;9.118;2023-12-22T11:03:50;8.20;80.60
25532;DHT22;13429;48.816;9.118;2023-12-22T11:06:17;8.20;81.10
25532;DHT22;13429;48.816;9.118;2023-12-22T11:08:46;8.20;81.40
25532;DHT22;13429;48.816;9.118;2023-12-22T11:11:20;8.10;82.20
25532;DHT22;13429;48.816;9.118;2023-12-22T11:13:52;8.10;82.60
25532;DHT22;13429;48.816;9.118;2023-12-22T11:16:19;8.10;82.70
25532;DHT22;13429;48.816;9.118;2023-12-22T11:18:48;8.00;83.60
25532;DHT22;13429;48.816;9.118;2023-12-22T11:21:14;8.00;84.10
25532;DHT22;13429;48.816;9.118;2023-12-22T11:23:40;8.00;84.40
25532;DHT22;13429;48.816;9.118;2023-12-22T11:26:08;7.90;84.50
25532;DHT22;13429;48.816;9.118;2023-12-22T11:28:37;7.80;84.80
25532;DHT22;13429;48.816;9.118;2023-12-22T11:31:04;7.80;85.30
25532;DHT22;13429;48.816;9.118;2023-12-22T11:33:35;7.80;85.90
25532;DHT22;13429;48.816;9.118;2023-12-22T11:36:03;7.80;85.70
25532;DHT22;13429;48.816;9.118;2023-12-22T11:38:30;7.80;86.00
25532;DHT22;13429;48.816;9.118;2023-12-22T11:40:58;7.70;86.30
25532;DHT22;13429;48.816;9.118;2023-12-22T11:43:25;7.70;86.30
25532;DHT22;13429;48.816;9.118;2023-12-22T11:45:51;7.70;86.50
25532;DHT22;13429;48.816;9.118;2023-12-22T11:48:16;7.60;86.30
25532;DHT22;13429;48.816;9.118;2023-12-22T11:50:43;7.60;86.70
25532;DHT22;13429;48.816;9.118;2023-12-22T11:53:25;7.50;86.90
25532;DHT22;13429;48.816;9.118;2023-12-22T11:56:07;7.50;86.90
25532;DHT22;13429;48.816;9.118;2023-12-22T12:01:01;7.50;87.60
25532;DHT22;13429;48.816;9.118;2023-12-22T12:03:30;7.50;87.40
25532;DHT22;13429;48.816;9.118;2023-12-22T12:06:22;7.50;87.40
25532;DHT22;13429;48.816;9.118;2023-12-22T12:09:00;7.50;87.80
25532;DHT22;13429;48.816;9.118;2023-12-22T12:14:29;7.50;87.80
25532;DHT22;13429;48.816;9.118;2023-12-22T12:17:03;7.50;87.50
25532;DHT22;13429;48.816;9.118;2023-12-22T12:19:31;7.50;87.60
25532;DHT22;13429;48.816;9.118;2023-12-22T12:21:58;7.50;87.70
25532;DHT22;13429;48.816;9.118;2023-12-22T12:24:24;7.50;87.50
25532;DHT22;13429;48.816;9.118;2023-12-22T12:26:50;7.60;87.50
25532;DHT22;13429;48.816;9.118;2023-12-22T12:29:17;7.60;87.40
25532;DHT22;13429;48.816;9.118;2023-12-22T12:31:43;7.50;87.50
25532;DHT22;13429;48.816;9.118;2023-12-22T12:34:10;7.50;87.80
25532;DHT22;13429;48.816;9.118;2023-12-22T12:36:37;7.50;87.60
25532;DHT22;13429;48.816;9.118;2023-12-22T12:39:08;7.50;87.60
25532;DHT22;13429;48.816;9.118;2023-12-22T12:41:40;7.50;87.70
25532;DHT22;13429;48.816;9.118;2023-12-22T12:44:06;7.50;87.50
25532;DHT22;13429;48.816;9.118;2023-12-22T12:46:38;7.60;87.60
25532;DHT22;13429;48.816;9.118;2023-12-22T12:49:08;7.50;87.90
25532;DHT22;13429;48.816;9.118;2023-12-22T12:51:38;7.50;87.90
25532;DHT22;13429;48.816;9.118;2023-12-22T12:54:05;7.50;88.10
25532;DHT22;13429;48.816;9.118;2023-12-22T12:56:39;7.60;88.10
25532;DHT22;13429;48.816;9.118;2023-12-22T13:01:38;7.70;88.10
25532;DHT22;13429;48.816;9.118;2023-12-22T13:04:04;7.80;88.00
25532;DHT22;13429;48.816;9.118;2023-12-22T13:06:30;7.90;88.10
25532;DHT22;13429;48.816;9.118;2023-12-22T13:08:56;7.90;88.00
25532;DHT22;13429;48.816;9.118;2023-12-22T13:11:22;8.10;87.80
25532;DHT22;13429;48.816;9.118;2023-12-22T13:13:49;8.20;87.80
25532;DHT22;13429;48.816;9.118;2023-12-22T13:16:23;8.30;87.60
25532;DHT22;13429;48.816;9.118;2023-12-22T13:18:52;8.40;87.40
25532;DHT22;13429;48.816;9.118;2023-12-22T13:21:18;8.50;87.00
25532;DHT22;13429;48.816;9.118;2023-12-22T13:23:44;8.60;86.70
25532;DHT22;13429;48.816;9.118;2023-12-22T13:26:23;8.70;86.80
25532;DHT22;13429;48.816;9.118;2023-12-22T13:28:49;8.80;86.40
25532;DHT22;13429;48.816;9.118;2023-12-22T13:31:15;8.80;86.10
25532;DHT22;13429;48.816;9.118;2023-12-22T13:33:43;8.80;86.20
25532;DHT22;13429;48.816;9.118;2023-12-22T13:36:10;8.90;86.20
25532;DHT22;13429;48.816;9.118;2023-12-22T13:38:36;8.90;86.10
25532;DHT22;13429;48.816;9.118;2023-12-22T13:41:02;8.90;85.90
25532;DHT22;13429;48.816;9.118;2023-12-22T13:43:29;9.00;86.00
25532;DHT22;13429;48.816;9.118;2023-12-22T13:45:55;9.00;85.70
25532;DHT22;13429;48.816;9.118;2023-12-22T13:48:21;9.00;85.20
25532;DHT22;13429;48.816;9.118;2023-12-22T13:50:57;9.10;84.50
25532;DHT22;13429;48.816;9.118;2023-12-22T13:53:24;9.20;84.70
25532;DHT22;13429;48.816;9.118;2023-12-22T13:56:00;9.20;84.50
25532;DHT22;13429;48.816;9.118;2023-12-22T13:58:26;9.20;84.10
25532;DHT22;13429;48.816;9.118;2023-12-22T14:00:53;9.30;83.90
25532;DHT22;13429;48.816;9.118;2023-12-22T14:03:19;9.30;83.90
25532;DHT22;13429;48.816;9.118;2023-12-22T14:05:52;9.30;83.80
25532;DHT22;13429;48.816;9.118;2023-12-22T14:08:18;9.30;84.00
25532;DHT22;13429;48.816;9.118;2023-12-22T14:10:50;9.30;83.90
25532;DHT22;13429;48.816;9.118;2023-12-22T14:13:16;9.30;83.70
25532;DHT22;13429;48.816;9.118;2023-12-22T14:15:45;9.30;83.60
25532;DHT22;13429;48.816;9.118;2023-12-22T14:18:11;9.30;83.80
25532;DHT22;13429;48.816;9.118;2023-12-22T14:20:38;9.40;83.80
25532;DHT22;13429;48.816;9.118;2023-12-22T14:23:04;9.40;83.50
25532;DHT22;13429;48.816;9.118;2023-12-22T14:25:29;9.40;83.10
25532;DHT22;13429;48.816;9.118;2023-12-22T14:27:57;9.40;83.40
25532;DHT22;13429;48.816;9.118;2023-12-22T14:30:24;9.40;83.50
25532;DHT22;13429;48.816;9.118;2023-12-22T14:32:50;9.50;83.00
25532;DHT22;13429;48.816;9.118;2023-12-22T14:35:15;9.50;82.70
25532;DHT22;13429;48.816;9.118;2023-12-22T14:37:41;9.50;82.80
25532;DHT22;13429;48.816;9.118;2023-12-22T14:40:09;9.50;83.00
25532;DHT22;13429;48.816;9.118;2023-12-22T14:42:35;9.50;82.70
25532;DHT22;13429;48.816;9.118;2023-12-22T14:45:00;9.50;82.80
25532;DHT22;13429;48.816;9.118;2023-12-22T14:47:29;9.50;83.00
25532;DHT22;13429;48.816;9.118;2023-12-22T14:49:56;9.50;83.00
25532;DHT22;13429;48.816;9.118;2023-12-22T14:52:25;9.50;83.10
25532;DHT22;13429;48.816;9.118;2023-12-22T14:54:51;9.40;83.20
25532;DHT22;13429;48.816;9.118;2023-12-22T14:57:16;9.40;83.10
25532;DHT22;13429;48.816;9.118;2023-12-22T14:59:44;9.40;82.90
25532;DHT22;13429;48.816;9.118;2023-12-22T15:02:11;9.40;82.70
25532;DHT22;13429;48.816;9.118;2023-12-22T15:04:36;9.50;82.40
25532;DHT22;13429;48.816;9.118;2023-12-22T15:07:02;9.50;82.30
25532;DHT22;13429;48.816;9.118;2023-12-22T15:09:28;9.40;82.60
25532;DHT22;13429;48.816;9.118;2023-12-22T15:11:54;9.40;82.70
25532;DHT22;13429;48.816;9.118;2023-12-22T15:14:20;9.40;83.20
25532;DHT22;13429;48.816;9.118;2023-12-22T15:16:47;9.30;83.50
25532;DHT22;13429;48.816;9.118;2023-12-22T15:19:16;9.30;83.70
25532;DHT22;13429;48.816;9.118;2023-12-22T15:21:42;9.30;83.70
25532;DHT22;13429;48.816;9.118;2023-12-22T15:24:09;9.30;83.90
25532;DHT22;13429;48.816;9.118;2023-12-22T15:26:35;9.30;84.00
25532;DHT22;13429;48.816;9.118;2023-12-22T15:29:02;9.40;83.80
25532;DHT22;13429;48.816;9.118;2023-12-22T15:31:29;9.30;83.80
25532;DHT22;13429;48.816;9.118;2023-12-22T15:33:56;9.30;83.80
25532;DHT22;13429;48.816;9.118;2023-12-22T15:36:21;9.30;83.30
25532;DHT22;13429;48.816;9.118;2023-12-22T15:38:47;9.30;83.40
25532;DHT22;13429;48.816;9.118;2023-12-22T15:41:13;9.30;83.30
25532;DHT22;13429;48.816;9.118;2023-12-22T15:43:39;9.30;82.60
25532;DHT22;13429;48.816;9.118;2023-12-22T15:46:09;9.30;82.60
25532;DHT22;13429;48.816;9.118;2023-12-22T15:48:38;9.40;81.90
25532;DHT22;13429;48.816;9.118;2023-12-22T15:51:13;9.40;82.00
25532;DHT22;13429;48.816;9.118;2023-12-22T15:53:42;9.40;81.40